createdAt,value
2018-10-11T00:00:39.505Z,100.00
2018-10-11T00:03:09.109Z,100.00
2018-10-11T00:05:38.898Z,100.00
2018-10-11T00:08:08.787Z,100.00
2018-10-11T00:10:38.310Z,100.00
2018-10-11T00:13:07.739Z,100.00
2018-10-11T00:15:37.065Z,100.00
2018-10-11T00:18:06.436Z,100.00
2018-10-11T00:20:35.762Z,100.00
2018-10-11T00:23:05.189Z,100.00
2018-10-11T00:25:34.542Z,100.00
2018-10-11T00:28:03.870Z,100.00
2018-10-11T00:30:33.279Z,100.00
2018-10-11T00:33:02.562Z,100.00
2018-10-11T00:35:31.931Z,100.00
2018-10-11T00:38:01.366Z,100.00
2018-10-11T00:40:30.761Z,100.00
2018-10-11T00:43:00.259Z,100.00
2018-10-11T00:45:29.643Z,100.00
2018-10-11T00:47:59.038Z,100.00
2018-10-11T00:50:28.475Z,100.00
2018-10-11T00:52:57.882Z,100.00
2018-10-11T00:55:27.396Z,100.00
2018-10-11T00:57:56.988Z,100.00
2018-10-11T01:00:26.500Z,100.00
2018-10-11T01:02:56.071Z,100.00
2018-10-11T01:05:25.663Z,100.00
2018-10-11T01:07:55.287Z,100.00
2018-10-11T01:10:25.239Z,100.00
2018-10-11T01:12:55.002Z,100.00
2018-10-11T01:15:25.019Z,100.00
2018-10-11T01:17:54.635Z,100.00
2018-10-11T01:20:24.512Z,100.00
2018-10-11T01:22:54.511Z,100.00
2018-10-11T01:25:24.258Z,100.00
2018-10-11T01:27:54.065Z,100.00
2018-10-11T01:30:24.650Z,100.00
2018-10-11T01:32:54.265Z,100.00
2018-10-11T01:35:24.113Z,100.00
2018-10-11T01:37:53.886Z,100.00
2018-10-11T01:40:23.746Z,100.00
2018-10-11T01:43:01.883Z,100.00
2018-10-11T01:45:31.384Z,100.00
2018-10-11T01:48:00.768Z,100.00
2018-10-11T01:50:30.187Z,100.00
2018-10-11T01:52:59.599Z,100.00
2018-10-11T01:55:29.730Z,100.00
2018-10-11T01:57:59.742Z,100.00
2018-10-11T02:00:29.064Z,100.00
2018-10-11T02:02:59.389Z,100.00
2018-10-11T02:05:29.222Z,100.00
2018-10-11T02:07:59.221Z,100.00
2018-10-11T02:10:29.340Z,100.00
2018-10-11T02:12:59.203Z,100.00
2018-10-11T02:15:29.032Z,100.00
2018-10-11T02:17:58.819Z,100.00
2018-10-11T02:20:28.525Z,100.00
2018-10-11T02:22:58.071Z,100.00
2018-10-11T02:25:27.527Z,100.00
2018-10-11T02:27:56.982Z,100.00
2018-10-11T02:30:26.392Z,100.00
2018-10-11T02:32:56.018Z,100.00
2018-10-11T02:35:25.457Z,100.00
2018-10-11T02:37:55.194Z,100.00
2018-10-11T02:40:24.947Z,100.00
2018-10-11T02:42:54.668Z,100.00
2018-10-11T02:45:24.270Z,100.00
2018-10-11T02:47:53.835Z,100.00
2018-10-11T02:50:23.400Z,100.00
2018-10-11T02:52:53.114Z,100.00
2018-10-11T02:55:26.151Z,100.00
2018-10-11T02:58:12.399Z,100.00
2018-10-11T03:00:41.931Z,100.00
2018-10-11T03:03:14.476Z,100.00
2018-10-11T03:05:45.678Z,100.00
2018-10-11T03:08:18.896Z,100.00
2018-10-11T03:10:51.946Z,100.00
2018-10-11T03:13:21.529Z,100.00
2018-10-11T03:15:52.009Z,100.00
2018-10-11T03:18:22.177Z,100.00
2018-10-11T03:20:51.876Z,100.00
2018-10-11T03:23:21.910Z,100.00
2018-10-11T03:25:51.757Z,100.00
2018-10-11T03:28:22.483Z,100.00
2018-10-11T03:30:51.898Z,100.00
2018-10-11T03:33:21.845Z,100.00
2018-10-11T03:35:52.001Z,100.00
2018-10-11T03:38:21.922Z,100.00
2018-10-11T03:40:51.670Z,100.00
2018-10-11T03:43:21.452Z,100.00
2018-10-11T03:45:51.223Z,100.00
2018-10-11T03:48:20.739Z,100.00
2018-10-11T03:50:50.296Z,100.00
2018-10-11T03:53:19.773Z,100.00
2018-10-11T03:55:49.186Z,100.00
2018-10-11T03:58:18.618Z,100.00
2018-10-11T04:00:47.924Z,100.00
2018-10-11T04:03:17.231Z,100.00
2018-10-11T04:05:46.541Z,100.00
2018-10-11T04:08:15.845Z,100.00
2018-10-11T04:10:45.101Z,100.00
2018-10-11T04:13:14.716Z,100.00
2018-10-11T04:15:44.177Z,100.00
2018-10-11T04:18:13.539Z,100.00
2018-10-11T04:20:43.006Z,100.00
2018-10-11T04:23:19.426Z,100.00
2018-10-11T04:25:49.031Z,100.00
2018-10-11T04:28:18.658Z,100.00
2018-10-11T04:30:47.971Z,100.00
2018-10-11T04:33:17.313Z,100.00
2018-10-11T04:35:46.547Z,100.00
2018-10-11T04:38:15.832Z,100.00
2018-10-11T04:40:45.074Z,100.00
2018-10-11T04:43:15.489Z,100.00
2018-10-11T04:45:44.842Z,100.00
2018-10-11T04:48:14.303Z,100.00
2018-10-11T04:50:44.628Z,100.00
2018-10-11T04:53:14.963Z,100.00
2018-10-11T04:55:45.151Z,100.00
2018-10-11T04:58:14.539Z,100.00
2018-10-11T05:00:43.903Z,100.00
2018-10-11T05:03:13.666Z,100.00
2018-10-11T05:05:43.607Z,100.00
2018-10-11T05:08:13.765Z,100.00
2018-10-11T05:10:44.150Z,100.00
2018-10-11T05:13:13.725Z,100.00
2018-10-11T05:15:44.396Z,100.00
2018-10-11T05:18:21.502Z,100.00
2018-10-11T05:20:51.091Z,100.00
2018-10-11T05:23:20.714Z,100.00
2018-10-11T05:25:50.147Z,100.00
2018-10-11T05:28:19.713Z,100.00
2018-10-11T05:30:49.169Z,100.00
2018-10-11T05:33:18.542Z,100.00
2018-10-11T05:35:47.851Z,100.00
2018-10-11T05:38:17.463Z,100.00
2018-10-11T05:40:46.898Z,100.00
2018-10-11T05:43:16.416Z,100.00
2018-10-11T05:45:55.631Z,100.00
2018-10-11T05:48:25.808Z,100.00
2018-10-11T05:50:55.611Z,100.00
2018-10-11T05:53:25.482Z,100.00
2018-10-11T05:55:55.140Z,100.00
2018-10-11T05:58:24.982Z,100.00
2018-10-11T06:00:54.658Z,100.00
2018-10-11T06:03:24.709Z,100.00
2018-10-11T06:05:54.393Z,100.00
2018-10-11T06:08:24.050Z,100.00
2018-10-11T06:10:53.632Z,100.00
2018-10-11T06:13:23.211Z,100.00
2018-10-11T06:15:52.766Z,100.00
2018-10-11T06:18:22.318Z,100.00
2018-10-11T06:20:51.853Z,100.00
2018-10-11T06:23:21.458Z,100.00
2018-10-11T06:25:51.043Z,100.00
2018-10-11T06:28:20.582Z,100.00
2018-10-11T06:30:50.026Z,100.00
2018-10-11T06:33:19.871Z,100.00
2018-10-11T06:35:49.361Z,100.00
2018-10-11T06:38:18.782Z,100.00
2018-10-11T06:40:48.069Z,100.00
2018-10-11T06:43:17.475Z,100.00
2018-10-11T06:45:46.935Z,100.00
2018-10-11T06:48:16.365Z,100.00
2018-10-11T06:50:46.326Z,100.00
2018-10-11T06:53:15.863Z,100.00
2018-10-11T06:55:45.310Z,100.00
2018-10-11T06:58:14.929Z,100.00
2018-10-11T07:00:44.325Z,100.00
2018-10-11T07:03:13.868Z,100.00
2018-10-11T07:05:43.400Z,100.00
2018-10-11T07:08:13.020Z,100.00
2018-10-11T07:10:42.452Z,100.00
2018-10-11T07:13:11.883Z,100.00
2018-10-11T07:15:41.385Z,100.00
2018-10-11T07:18:10.660Z,100.00
2018-10-11T07:20:39.974Z,100.00
2018-10-11T07:23:09.795Z,100.00
2018-10-11T07:25:39.162Z,100.00
2018-10-11T07:28:08.458Z,100.00
2018-10-11T07:30:37.743Z,100.00
2018-10-11T07:33:07.088Z,100.00
2018-10-11T07:35:36.419Z,100.00
2018-10-11T07:38:05.623Z,99.94
2018-10-11T07:40:35.001Z,99.08
2018-10-11T07:43:04.269Z,98.24
2018-10-11T07:45:33.522Z,96.81
2018-10-11T07:48:02.852Z,96.60
2018-10-11T07:50:32.147Z,96.14
2018-10-11T07:53:01.560Z,94.97
2018-10-11T07:55:30.986Z,93.92
2018-10-11T07:58:00.255Z,92.90
2018-10-11T08:00:29.566Z,91.66
2018-10-11T08:02:58.910Z,90.93
2018-10-11T08:05:28.175Z,89.56
2018-10-11T08:07:57.497Z,89.05
2018-10-11T08:10:26.944Z,87.35
2018-10-11T08:12:56.238Z,86.84
2018-10-11T08:15:25.610Z,86.66
2018-10-11T08:17:55.005Z,85.25
2018-10-11T08:20:24.416Z,85.21
2018-10-11T08:22:53.884Z,84.15
2018-10-11T08:25:23.715Z,84.25
2018-10-11T08:27:53.332Z,83.09
2018-10-11T08:30:23.118Z,80.73
2018-10-11T08:32:52.844Z,81.50
2018-10-11T08:35:22.556Z,80.66
2018-10-11T08:37:52.387Z,80.17
2018-10-11T08:40:22.039Z,81.12
2018-10-11T08:42:51.671Z,80.67
2018-10-11T08:45:21.283Z,80.71
2018-10-11T08:47:50.852Z,80.27
2018-10-11T08:50:20.450Z,80.26
2018-10-11T08:52:49.780Z,78.81
2018-10-11T08:55:19.163Z,78.51
2018-10-11T08:57:48.542Z,77.77
2018-10-11T09:00:17.887Z,77.65
2018-10-11T09:02:47.166Z,77.40
2018-10-11T09:05:16.569Z,76.50
2018-10-11T09:07:45.846Z,75.77
2018-10-11T09:10:15.177Z,76.21
2018-10-11T09:12:44.652Z,75.93
2018-10-11T09:15:13.994Z,74.85
2018-10-11T09:17:43.595Z,73.59
2018-10-11T09:20:13.112Z,72.84
2018-10-11T09:22:42.499Z,72.15
2018-10-11T09:25:11.982Z,72.92
2018-10-11T09:27:41.300Z,72.57
2018-10-11T09:30:10.668Z,72.86
2018-10-11T09:32:40.008Z,72.15
2018-10-11T09:35:09.517Z,71.88
2018-10-11T09:37:38.813Z,71.65
2018-10-11T09:40:08.295Z,70.89
2018-10-11T09:42:37.619Z,71.13
2018-10-11T09:45:07.686Z,69.58
2018-10-11T09:47:37.018Z,70.04
2018-10-11T09:50:06.463Z,69.75
2018-10-11T09:52:35.803Z,69.02
2018-10-11T09:55:05.218Z,70.87
2018-10-11T09:57:35.782Z,70.69
2018-10-11T10:00:12.560Z,68.57
2018-10-11T10:02:42.061Z,68.63
2018-10-11T10:05:11.684Z,67.46
2018-10-11T10:07:41.072Z,66.34
2018-10-11T10:10:10.489Z,66.42
2018-10-11T10:12:39.779Z,65.99
2018-10-11T10:15:09.246Z,65.99
2018-10-11T10:17:38.551Z,65.40
2018-10-11T10:20:07.989Z,64.37
2018-10-11T10:22:37.347Z,65.17
2018-10-11T10:25:06.719Z,64.19
2018-10-11T10:27:36.023Z,64.65
2018-10-11T10:30:10.825Z,64.81
2018-10-11T10:32:40.322Z,64.44
2018-10-11T10:35:09.748Z,63.20
2018-10-11T10:37:39.044Z,63.65
2018-10-11T10:40:08.434Z,63.08
2018-10-11T10:42:37.817Z,62.85
2018-10-11T10:45:07.439Z,62.68
2018-10-11T10:47:36.740Z,62.68
2018-10-11T10:50:06.065Z,61.73
2018-10-11T10:52:35.366Z,61.46
2018-10-11T10:55:04.674Z,61.43
2018-10-11T10:57:34.046Z,62.59
2018-10-11T11:00:03.412Z,62.10
2018-10-11T11:02:32.677Z,62.58
2018-10-11T11:05:01.971Z,61.57
2018-10-11T11:07:31.231Z,61.52
2018-10-11T11:10:00.567Z,60.61
2018-10-11T11:12:29.917Z,60.79
2018-10-11T11:14:59.227Z,60.51
2018-10-11T11:17:29.402Z,59.44
2018-10-11T11:19:59.409Z,60.56
2018-10-11T11:22:30.532Z,60.04
2018-10-11T11:24:59.894Z,60.96
2018-10-11T11:27:29.251Z,59.76
2018-10-11T11:29:58.538Z,59.68
2018-10-11T11:32:27.862Z,58.92
2018-10-11T11:34:57.268Z,59.56
2018-10-11T11:37:26.686Z,59.59
2018-10-11T11:39:56.242Z,59.14
2018-10-11T11:42:25.587Z,58.32
2018-10-11T11:44:54.989Z,57.41
2018-10-11T11:47:24.898Z,57.03
2018-10-11T11:49:54.535Z,57.47
2018-10-11T11:52:24.210Z,56.83
2018-10-11T11:54:53.766Z,54.84
2018-10-11T11:57:23.331Z,56.51
2018-10-11T11:59:57.454Z,55.02
2018-10-11T12:02:27.053Z,54.18
2018-10-11T12:04:56.421Z,57.04
2018-10-11T12:07:25.787Z,56.89
2018-10-11T12:09:55.431Z,56.96
2018-10-11T12:12:55.336Z,56.04
2018-10-11T12:15:25.942Z,55.80
2018-10-11T12:17:56.362Z,58.22
2018-10-11T12:20:26.760Z,58.08
2018-10-11T12:22:57.288Z,58.31
2018-10-11T12:25:26.998Z,59.10
2018-10-11T12:27:56.361Z,58.84
2018-10-11T12:30:25.889Z,58.32
2018-10-11T12:32:55.483Z,57.88
2018-10-11T12:35:25.662Z,58.80
2018-10-11T12:37:55.192Z,57.66
2018-10-11T12:40:24.757Z,56.98
2018-10-11T12:42:54.361Z,56.25
2018-10-11T12:45:24.307Z,54.67
2018-10-11T12:47:53.795Z,54.27
2018-10-11T12:50:23.397Z,54.40
2018-10-11T12:52:52.796Z,55.50
2018-10-11T12:55:22.275Z,55.76
2018-10-11T12:57:51.610Z,55.28
2018-10-11T13:00:20.998Z,55.25
2018-10-11T13:02:50.558Z,56.36
2018-10-11T13:05:19.762Z,55.62
2018-10-11T13:07:49.124Z,55.29
2018-10-11T13:10:18.449Z,55.22
2018-10-11T13:12:47.799Z,55.83
2018-10-11T13:15:17.081Z,55.54
2018-10-11T13:17:46.386Z,55.21
2018-10-11T13:20:15.694Z,54.73
2018-10-11T13:22:45.067Z,54.46
2018-10-11T13:25:14.434Z,54.14
2018-10-11T13:27:43.892Z,54.17
2018-10-11T13:30:13.195Z,54.32
2018-10-11T13:32:42.730Z,52.37
2018-10-11T13:35:12.407Z,52.32
2018-10-11T13:37:41.650Z,52.44
2018-10-11T13:40:10.939Z,51.98
2018-10-11T13:42:40.295Z,52.20
2018-10-11T13:45:09.666Z,52.71
2018-10-11T13:47:42.325Z,53.23
2018-10-11T13:50:08.582Z,53.00
2018-10-11T13:52:37.909Z,53.45
2018-10-11T13:55:12.149Z,53.51
2018-10-11T13:57:36.564Z,54.27
2018-10-11T14:00:06.869Z,54.73
2018-10-11T14:02:36.175Z,55.76
2018-10-11T14:05:06.123Z,55.64
2018-10-11T14:07:35.462Z,56.51
2018-10-11T14:10:04.854Z,56.37
2018-10-11T14:12:34.214Z,56.29
2018-10-11T14:15:03.526Z,56.10
2018-10-11T14:17:32.921Z,56.81
2018-10-11T14:20:02.177Z,57.16
2018-10-11T14:22:31.502Z,57.16
2018-10-11T14:25:00.794Z,56.75
2018-10-11T14:27:30.168Z,57.09
2018-10-11T14:29:59.510Z,57.48
2018-10-11T14:32:28.883Z,57.24
2018-10-11T14:34:58.380Z,57.19
2018-10-11T14:40:09.323Z,57.98
2018-10-11T14:42:38.767Z,58.48
2018-10-11T14:45:08.351Z,57.95
2018-10-11T14:47:37.681Z,57.78
2018-10-11T14:50:06.997Z,57.71
2018-10-11T14:52:36.279Z,57.83
2018-10-11T14:55:05.557Z,58.89
2018-10-11T14:57:34.918Z,59.09
2018-10-11T15:00:04.254Z,59.72
2018-10-11T15:02:33.471Z,59.63
2018-10-11T15:05:02.799Z,60.49
2018-10-11T15:07:32.191Z,61.37
2018-10-11T15:10:01.615Z,60.74
2018-10-11T15:12:30.919Z,61.22
2018-10-11T15:15:00.210Z,61.50
2018-10-11T15:17:29.572Z,61.39
2018-10-11T15:19:58.901Z,61.84
2018-10-11T15:22:28.202Z,61.95
2018-10-11T15:24:57.493Z,62.53
2018-10-11T15:27:26.946Z,62.76
2018-10-11T15:29:56.579Z,63.65
2018-10-11T15:32:25.913Z,64.06
2018-10-11T15:34:55.586Z,64.40
2018-10-11T15:37:25.037Z,65.44
2018-10-11T15:39:54.545Z,66.18
2018-10-11T15:42:24.125Z,66.34
2018-10-11T15:44:53.778Z,66.80
2018-10-11T15:47:23.551Z,68.13
2018-10-11T15:49:53.031Z,69.18
2018-10-11T15:52:22.598Z,70.37
2018-10-11T15:54:53.958Z,71.34
2018-10-11T15:57:23.827Z,72.28
2018-10-11T15:59:54.420Z,72.57
2018-10-11T16:02:24.842Z,72.61
2018-10-11T16:04:54.816Z,72.53
2018-10-11T16:07:30.569Z,72.50
2018-10-11T16:09:59.895Z,72.86
2018-10-11T16:12:29.207Z,72.81
2018-10-11T16:14:58.523Z,73.05
2018-10-11T16:17:27.872Z,72.66
2018-10-11T16:19:57.186Z,72.82
2018-10-11T16:22:26.651Z,72.96
2018-10-11T16:24:56.205Z,73.05
2018-10-11T16:27:26.865Z,73.59
2018-10-11T16:29:56.263Z,73.52
2018-10-11T16:32:25.695Z,73.95
2018-10-11T16:34:55.275Z,74.49
2018-10-11T16:37:24.812Z,74.46
2018-10-11T16:39:54.331Z,74.32
2018-10-11T16:42:23.903Z,74.12
2018-10-11T16:44:53.598Z,74.21
2018-10-11T16:47:23.354Z,74.51
2018-10-11T16:49:52.878Z,75.07
2018-10-11T16:52:22.288Z,75.15
2018-10-11T16:54:51.923Z,75.17
2018-10-11T16:57:21.542Z,75.79
2018-10-11T16:59:51.126Z,76.27
2018-10-11T17:02:21.038Z,76.37
2018-10-11T17:04:50.594Z,76.44
2018-10-11T17:07:20.132Z,76.63
2018-10-11T17:09:49.616Z,76.84
2018-10-11T17:12:18.946Z,76.75
2018-10-11T17:14:48.341Z,76.99
2018-10-11T17:17:20.475Z,76.59
2018-10-11T17:19:49.978Z,77.21
2018-10-11T17:22:19.379Z,77.01
2018-10-11T17:24:48.793Z,76.96
2018-10-11T17:27:18.192Z,77.20
2018-10-11T17:29:47.643Z,78.14
2018-10-11T17:32:17.019Z,78.54
2018-10-11T17:34:46.398Z,79.39
2018-10-11T17:37:15.842Z,79.79
2018-10-11T17:39:45.953Z,80.24
2018-10-11T17:42:15.519Z,81.82
2018-10-11T17:44:45.118Z,82.50
2018-10-11T17:47:15.114Z,83.91
2018-10-11T17:49:44.615Z,84.54
2018-10-11T17:52:14.459Z,87.25
2018-10-11T17:54:49.247Z,87.78
2018-10-11T17:57:18.606Z,88.37
2018-10-11T17:59:48.321Z,89.38
2018-10-11T18:02:18.179Z,90.68
2018-10-11T18:04:47.523Z,92.79
2018-10-11T18:07:16.879Z,94.24
2018-10-11T18:09:46.219Z,94.39
2018-10-11T18:12:15.596Z,95.26
2018-10-11T18:14:44.964Z,95.27
2018-10-11T18:17:14.451Z,96.91
2018-10-11T18:19:44.386Z,97.86
2018-10-11T18:22:13.779Z,98.06
2018-10-11T18:24:44.495Z,98.53
2018-10-11T18:27:13.995Z,97.91
2018-10-11T18:29:43.462Z,98.48
2018-10-11T18:32:13.089Z,98.14
2018-10-11T18:34:42.642Z,99.29
2018-10-11T18:37:13.064Z,100.00
2018-10-11T18:39:42.540Z,100.00
2018-10-11T18:42:12.223Z,100.00
2018-10-11T18:44:43.313Z,100.00
2018-10-11T18:47:12.707Z,100.00
2018-10-11T18:49:42.198Z,100.00
2018-10-11T18:52:13.087Z,100.00
2018-10-11T18:54:42.501Z,100.00
2018-10-11T18:57:13.236Z,100.00
2018-10-11T18:59:42.799Z,100.00
2018-10-11T19:02:12.809Z,100.00
2018-10-11T19:04:42.277Z,100.00
2018-10-11T19:07:12.178Z,100.00
2018-10-11T19:09:41.743Z,100.00
2018-10-11T19:12:11.207Z,100.00
2018-10-11T19:14:40.628Z,100.00
2018-10-11T19:17:11.381Z,100.00
2018-10-11T19:19:41.099Z,100.00
2018-10-11T19:22:10.502Z,100.00
2018-10-11T19:24:42.304Z,100.00
2018-10-11T19:27:11.809Z,100.00
2018-10-11T19:29:43.112Z,100.00
2018-10-11T19:32:12.450Z,100.00
2018-10-11T19:34:42.186Z,100.00
2018-10-11T19:37:11.528Z,100.00
2018-10-11T19:39:40.947Z,100.00
2018-10-11T19:42:18.315Z,100.00
2018-10-11T19:44:50.472Z,100.00
2018-10-11T19:47:20.139Z,100.00
2018-10-11T19:49:49.723Z,100.00
2018-10-11T19:52:20.686Z,100.00
2018-10-11T19:54:50.245Z,100.00
2018-10-11T19:57:19.741Z,100.00
2018-10-11T19:59:51.535Z,100.00
2018-10-11T20:02:21.940Z,100.00
2018-10-11T20:04:51.506Z,100.00
2018-10-11T20:07:20.952Z,100.00
2018-10-11T20:09:50.474Z,100.00
2018-10-11T20:12:23.366Z,100.00
2018-10-11T20:14:55.259Z,100.00
2018-10-11T20:17:25.050Z,100.00
2018-10-11T20:19:54.547Z,100.00
2018-10-11T20:22:24.442Z,100.00
2018-10-11T20:24:54.175Z,100.00
2018-10-11T20:27:23.739Z,100.00
2018-10-11T20:29:54.004Z,100.00
2018-10-11T20:32:23.700Z,100.00
2018-10-11T20:34:53.675Z,100.00
2018-10-11T20:37:23.527Z,100.00
2018-10-11T20:39:54.805Z,100.00
2018-10-11T20:42:24.569Z,100.00
2018-10-11T20:44:54.298Z,100.00
2018-10-11T20:47:37.800Z,100.00
2018-10-11T20:50:08.303Z,100.00
2018-10-11T20:52:37.950Z,100.00
2018-10-11T20:55:07.583Z,100.00
2018-10-11T20:57:36.941Z,100.00
2018-10-11T21:00:07.218Z,100.00
2018-10-11T21:02:36.548Z,100.00
2018-10-11T21:05:05.970Z,100.00
2018-10-11T21:07:35.275Z,100.00
2018-10-11T21:10:05.431Z,100.00
2018-10-11T21:12:34.761Z,100.00
2018-10-11T21:15:04.046Z,100.00
2018-10-11T21:17:33.322Z,100.00
2018-10-11T21:20:02.632Z,100.00
2018-10-11T21:22:31.915Z,100.00
2018-10-11T21:25:01.190Z,100.00
2018-10-11T21:27:30.597Z,100.00
2018-10-11T21:30:03.419Z,100.00
2018-10-11T21:32:35.027Z,100.00
2018-10-11T21:35:05.978Z,100.00
2018-10-11T21:37:36.913Z,100.00
2018-10-11T21:40:06.619Z,100.00
2018-10-11T21:42:36.027Z,100.00
2018-10-11T21:45:05.340Z,100.00
2018-10-11T21:47:34.679Z,100.00
2018-10-11T21:50:12.026Z,100.00
2018-10-11T21:52:41.065Z,100.00
2018-10-11T21:55:10.400Z,100.00
2018-10-11T21:57:39.764Z,100.00
2018-10-11T22:00:09.148Z,100.00
2018-10-11T22:02:38.586Z,100.00
2018-10-11T22:05:07.944Z,100.00
2018-10-11T22:07:37.438Z,100.00
2018-10-11T22:10:06.776Z,100.00
2018-10-11T22:12:36.107Z,100.00
2018-10-11T22:15:06.725Z,100.00
2018-10-11T22:17:36.039Z,100.00
2018-10-11T22:20:05.742Z,100.00
2018-10-11T22:22:35.070Z,99.30
2018-10-11T22:25:04.476Z,98.11
2018-10-11T22:27:33.835Z,98.85
2018-10-11T22:30:03.160Z,99.75
2018-10-11T22:32:32.795Z,100.00
2018-10-11T22:35:02.155Z,100.00
2018-10-11T22:37:31.597Z,100.00
2018-10-11T22:40:00.952Z,100.00
2018-10-11T22:42:30.235Z,100.00
2018-10-11T22:44:59.592Z,100.00
2018-10-11T22:47:28.896Z,100.00
2018-10-11T22:49:58.244Z,100.00
2018-10-11T22:52:27.744Z,100.00
2018-10-11T22:54:57.182Z,100.00
2018-10-11T22:57:26.665Z,100.00
2018-10-11T22:59:56.134Z,100.00
2018-10-11T23:02:25.783Z,100.00
2018-10-11T23:04:55.251Z,100.00
2018-10-11T23:07:24.834Z,98.90
2018-10-11T23:09:54.637Z,93.51
2018-10-11T23:12:24.758Z,89.08
2018-10-11T23:14:54.554Z,86.49
2018-10-11T23:17:24.295Z,86.35
2018-10-11T23:19:54.238Z,88.13
2018-10-11T23:22:24.015Z,88.62
2018-10-11T23:24:53.430Z,88.19
2018-10-11T23:27:23.086Z,89.45
2018-10-11T23:29:53.008Z,86.61
2018-10-11T23:32:22.575Z,85.18
2018-10-11T23:34:52.221Z,86.42
2018-10-11T23:37:21.980Z,89.12
2018-10-11T23:39:51.876Z,90.34
2018-10-11T23:42:21.760Z,92.14
2018-10-11T23:44:52.084Z,92.73
2018-10-11T23:47:21.965Z,93.33
2018-10-11T23:49:51.872Z,93.18
2018-10-11T23:52:21.950Z,92.64
2018-10-11T23:54:51.984Z,91.89
2018-10-11T23:57:21.904Z,91.10
2018-10-11T23:59:51.839Z,89.98
